createdAt,value
2019-01-15T00:00:02.465Z,1020.64
2019-01-15T00:05:02.611Z,1020.68
2019-01-15T00:10:03.063Z,1020.67
2019-01-15T00:15:02.497Z,1020.74
2019-01-15T00:20:02.922Z,1020.75
2019-01-15T00:25:03.295Z,1020.78
2019-01-15T00:30:02.684Z,1020.76
2019-01-15T00:35:03.036Z,1020.71
2019-01-15T00:40:02.442Z,1020.66
2019-01-15T00:45:02.821Z,1020.52
2019-01-15T00:50:03.230Z,1020.52
2019-01-15T00:55:02.638Z,1020.51
2019-01-15T01:00:02.975Z,1020.44
2019-01-15T01:05:02.612Z,1020.46
2019-01-15T01:10:03.067Z,1020.54
2019-01-15T01:15:03.102Z,1020.54
2019-01-15T01:20:02.507Z,1020.58
2019-01-15T01:25:03.068Z,1020.68
2019-01-15T01:30:02.401Z,1020.63
2019-01-15T01:35:02.814Z,1020.69
2019-01-15T01:40:03.292Z,1020.8
2019-01-15T01:45:02.667Z,1020.73
2019-01-15T01:50:03.017Z,1020.72
2019-01-15T01:55:02.440Z,1020.7
2019-01-15T02:00:02.914Z,1020.7
2019-01-15T02:05:03.325Z,1020.47
2019-01-15T02:10:02.774Z,1020.44
2019-01-15T02:15:03.192Z,1020.42
2019-01-15T02:20:02.598Z,1020.29
2019-01-15T02:25:02.951Z,1020.32
2019-01-15T02:30:03.290Z,1020.44
2019-01-15T02:35:02.707Z,1020.34
2019-01-15T02:40:03.163Z,1020.36
2019-01-15T02:45:02.664Z,1020.3
2019-01-15T02:50:03.062Z,1020.32
2019-01-15T02:55:02.437Z,1020.21
2019-01-15T03:00:01.976Z,1020.19
2019-01-15T03:05:02.410Z,1020.1
2019-01-15T03:10:02.837Z,1020.2
2019-01-15T03:15:03.170Z,1020.16
2019-01-15T03:20:02.605Z,1020.11
2019-01-15T03:25:03.053Z,1020.24
2019-01-15T03:30:02.383Z,1020.17
2019-01-15T03:35:02.811Z,1020.09
2019-01-15T03:40:03.243Z,1019.98
2019-01-15T03:45:04.819Z,1019.88
2019-01-15T03:50:02.587Z,1019.82
2019-01-15T03:55:02.937Z,1019.78
2019-01-15T04:00:03.580Z,1019.8
2019-01-15T04:05:02.994Z,1019.74
2019-01-15T04:10:02.422Z,1019.74
2019-01-15T04:15:02.764Z,1019.62
2019-01-15T04:20:03.230Z,1019.62
2019-01-15T04:25:02.668Z,1019.45
2019-01-15T04:30:03.061Z,1019.37
2019-01-15T04:35:02.492Z,1019.39
2019-01-15T04:40:02.890Z,1019.4
2019-01-15T04:45:03.274Z,1019.39
2019-01-15T04:50:02.690Z,1019.47
2019-01-15T04:55:03.047Z,1019.38
2019-01-15T05:00:02.467Z,1019.35
2019-01-15T05:05:02.797Z,1019.37
2019-01-15T05:10:03.245Z,1019.47
2019-01-15T05:15:02.963Z,1019.37
2019-01-15T05:20:02.389Z,1019.33
2019-01-15T05:25:02.831Z,1019.17
2019-01-15T05:30:02.241Z,1019.05
2019-01-15T05:35:02.748Z,1019.03
2019-01-15T05:40:03.231Z,1018.92
2019-01-15T05:45:02.689Z,1018.99
2019-01-15T05:50:03.095Z,1018.98
2019-01-15T05:55:02.524Z,1018.81
2019-01-15T06:00:02.889Z,1018.71
2019-01-15T06:05:03.305Z,1018.64
2019-01-15T06:10:02.756Z,1018.67
2019-01-15T06:15:03.173Z,1018.56
2019-01-15T06:20:02.572Z,1018.57
2019-01-15T06:25:02.964Z,1018.53
2019-01-15T06:30:03.386Z,1018.54
2019-01-15T06:35:02.778Z,1018.56
2019-01-15T06:40:03.172Z,1018.46
2019-01-15T06:45:02.552Z,1018.47
2019-01-15T06:50:02.891Z,1018.57
2019-01-15T06:55:03.333Z,1018.69
2019-01-15T07:00:02.742Z,1018.68
2019-01-15T07:05:03.093Z,1018.79
2019-01-15T07:10:02.499Z,1018.79
2019-01-15T07:15:02.905Z,1018.56
2019-01-15T07:20:03.294Z,1018.51
2019-01-15T07:25:02.621Z,1018.32
2019-01-15T07:30:03.064Z,1018.14
2019-01-15T07:35:02.471Z,1018.12
2019-01-15T07:40:02.914Z,1018.17
2019-01-15T07:45:03.284Z,1018.31
2019-01-15T07:50:02.668Z,1018.26
2019-01-15T07:55:03.138Z,1018.23
2019-01-15T08:00:02.540Z,1018.18
2019-01-15T08:05:02.893Z,1018.2
2019-01-15T08:10:03.330Z,1018.2
2019-01-15T08:15:03.062Z,1018.38
2019-01-15T08:20:01.587Z,1018.48
2019-01-15T08:25:02.909Z,1018.54
2019-01-15T08:30:03.560Z,1018.38
2019-01-15T08:35:03.012Z,1018.44
2019-01-15T08:40:02.537Z,1018.38
2019-01-15T08:45:02.947Z,1018.46
2019-01-15T08:50:03.286Z,1018.38
2019-01-15T08:55:02.702Z,1018.41
2019-01-15T09:00:03.042Z,1018.5
2019-01-15T09:05:02.384Z,1018.44
2019-01-15T09:10:02.806Z,1018.44
2019-01-15T09:15:03.249Z,1018.41
2019-01-15T09:20:02.597Z,1018.38
2019-01-15T09:25:03.013Z,1018.3
2019-01-15T09:30:02.347Z,1018.26
2019-01-15T09:35:02.773Z,1018.19
2019-01-15T09:40:03.243Z,1018.14
2019-01-15T09:45:02.669Z,1018.11
2019-01-15T09:50:03.113Z,1018.14
2019-01-15T09:55:02.522Z,1018.14
2019-01-15T10:00:02.942Z,1018.02
2019-01-15T10:05:03.386Z,1018.06
2019-01-15T10:10:02.797Z,1017.99
2019-01-15T10:15:03.251Z,1018.06
2019-01-15T10:20:02.653Z,1018.11
2019-01-15T10:25:03.006Z,1018.05
2019-01-15T10:30:02.458Z,1018.09
2019-01-15T10:35:02.861Z,1018.03
2019-01-15T10:40:03.341Z,1017.99
2019-01-15T10:45:02.727Z,1017.93
2019-01-15T10:50:03.073Z,1017.94
2019-01-15T10:55:02.491Z,1017.81
2019-01-15T11:00:02.824Z,1017.85
2019-01-15T11:05:03.294Z,1017.81
2019-01-15T11:10:02.793Z,1017.88
2019-01-15T11:15:03.138Z,1017.81
2019-01-15T11:20:02.553Z,1017.74
2019-01-15T11:25:02.898Z,1017.76
2019-01-15T11:30:03.262Z,1017.71
2019-01-15T11:35:02.642Z,1017.76
2019-01-15T11:40:03.101Z,1017.73
2019-01-15T11:45:03.594Z,1017.67
2019-01-15T11:50:03.278Z,1017.58
2019-01-15T11:55:02.675Z,1017.58
2019-01-15T12:00:03.026Z,1017.44
2019-01-15T12:05:02.355Z,1017.39
2019-01-15T12:10:02.884Z,1017.34
2019-01-15T12:15:10.594Z,1017.34
2019-01-15T12:20:02.437Z,1017.28
2019-01-15T12:25:01.984Z,1017.2
2019-01-15T12:30:02.449Z,1017.12
2019-01-15T12:35:02.853Z,1017.06
2019-01-15T12:40:03.297Z,1017.02
2019-01-15T12:45:02.715Z,1016.93
2019-01-15T12:50:03.068Z,1016.98
2019-01-15T12:55:02.479Z,1017.02
2019-01-15T13:00:02.814Z,1016.96
2019-01-15T13:05:03.159Z,1016.99
2019-01-15T13:10:02.563Z,1017.02
2019-01-15T13:15:02.915Z,1016.93
2019-01-15T13:20:03.365Z,1016.96
2019-01-15T13:25:02.775Z,1016.96
2019-01-15T13:30:03.122Z,1016.92
2019-01-15T13:35:02.537Z,1016.84
2019-01-15T13:40:02.985Z,1016.85
2019-01-15T13:45:02.404Z,1016.79
2019-01-15T13:50:02.736Z,1016.75
2019-01-15T13:55:03.121Z,1016.76
2019-01-15T14:00:02.494Z,1016.73
2019-01-15T14:05:02.977Z,1016.72
2019-01-15T14:10:02.460Z,1016.65
2019-01-15T14:15:02.784Z,1016.64
2019-01-15T14:20:03.292Z,1016.64
2019-01-15T14:25:02.697Z,1016.62
2019-01-15T14:30:03.115Z,1016.56
2019-01-15T14:35:02.538Z,1016.47
2019-01-15T14:40:02.175Z,1016.42
2019-01-15T14:45:02.606Z,1016.39
2019-01-15T14:50:03.043Z,1016.4
2019-01-15T14:55:02.485Z,1016.34
2019-01-15T15:00:02.917Z,1016.36
2019-01-15T15:05:03.350Z,1016.25
2019-01-15T15:10:02.783Z,1016.29
2019-01-15T15:15:03.238Z,1016.35
2019-01-15T15:20:02.619Z,1016.27
2019-01-15T15:25:02.982Z,1016.31
2019-01-15T15:30:02.381Z,1016.26
2019-01-15T15:35:01.930Z,1016.26
2019-01-15T15:40:02.358Z,1016.26
2019-01-15T15:45:02.052Z,1016.22
2019-01-15T15:50:02.423Z,1016.25
2019-01-15T15:55:02.867Z,1016.27
2019-01-15T16:00:03.213Z,1016.2
2019-01-15T16:05:02.657Z,1016.23
2019-01-15T16:10:03.077Z,1016.26
2019-01-15T16:15:02.531Z,1016.21
2019-01-15T16:20:02.857Z,1016.21
2019-01-15T16:25:03.274Z,1016.16
2019-01-15T16:30:02.690Z,1016.13
2019-01-15T16:35:03.030Z,1016.15
2019-01-15T16:40:01.644Z,1016.15
2019-01-15T16:45:02.201Z,1016.12
2019-01-15T16:50:02.618Z,1016.12
2019-01-15T16:55:02.957Z,1016.1
2019-01-15T17:00:03.295Z,1016.11
2019-01-15T17:05:02.722Z,1016.09
2019-01-15T17:10:03.377Z,1016.13
2019-01-15T17:15:02.833Z,1016.14
2019-01-15T17:20:03.227Z,1016.04
2019-01-15T17:25:02.569Z,1016.09
2019-01-15T17:30:02.996Z,1016.1
2019-01-15T17:35:02.410Z,1016.18
2019-01-15T17:40:02.836Z,1016.01
2019-01-15T17:45:03.303Z,1016.1
2019-01-15T17:50:02.707Z,1016.1
2019-01-15T17:55:03.093Z,1016.08
2019-01-15T18:00:02.475Z,1016.02
2019-01-15T18:05:02.835Z,1016.09
2019-01-15T18:10:03.303Z,1016.0
2019-01-15T18:15:02.670Z,1016.03
2019-01-15T18:20:03.023Z,1016.05
2019-01-15T18:25:02.470Z,1016.04
2019-01-15T18:30:02.877Z,1015.95
2019-01-15T18:35:03.227Z,1015.93
2019-01-15T18:40:02.640Z,1015.99
2019-01-15T18:45:03.025Z,1015.99
2019-01-15T18:50:02.409Z,1016.02
2019-01-15T18:55:02.849Z,1015.9
2019-01-15T19:00:03.182Z,1015.92
2019-01-15T19:05:02.505Z,1015.95
2019-01-15T19:10:02.951Z,1015.94
2019-01-15T19:15:03.393Z,1015.91
2019-01-15T19:20:02.757Z,1015.89
2019-01-15T19:25:03.149Z,1015.91
2019-01-15T19:30:02.486Z,1015.94
2019-01-15T19:35:02.910Z,1015.94
2019-01-15T19:40:02.322Z,1015.89
2019-01-15T19:45:02.672Z,1015.91
2019-01-15T19:50:03.013Z,1015.87
2019-01-15T19:55:02.426Z,1015.81
2019-01-15T20:00:01.965Z,1015.77
2019-01-15T20:05:03.333Z,1015.87
2019-01-15T20:10:02.733Z,1015.84
2019-01-15T20:15:03.080Z,1015.87
2019-01-15T20:20:02.485Z,1015.85
2019-01-15T20:25:02.851Z,1015.86
2019-01-15T20:30:03.302Z,1015.89
2019-01-15T20:35:02.702Z,1015.84
2019-01-15T20:40:03.172Z,1015.83
2019-01-15T20:45:02.537Z,1015.85
2019-01-15T20:50:02.967Z,1015.82
2019-01-15T20:55:03.364Z,1015.85
2019-01-15T21:00:02.731Z,1015.84
2019-01-15T21:05:03.155Z,1015.8
2019-01-15T21:10:02.621Z,1015.87
2019-01-15T21:15:03.117Z,1015.82
2019-01-15T21:20:02.478Z,1015.82
2019-01-15T21:25:02.824Z,1015.75
2019-01-15T21:30:03.179Z,1015.64
2019-01-15T21:35:02.591Z,1015.67
2019-01-15T21:40:03.068Z,1015.64
2019-01-15T21:45:02.393Z,1015.58
2019-01-15T21:50:02.801Z,1015.6
2019-01-15T21:55:03.129Z,1015.47
2019-01-15T22:00:01.652Z,1015.42
2019-01-15T22:05:02.979Z,1015.47
2019-01-15T22:10:02.415Z,1015.37
2019-01-15T22:15:02.789Z,1015.34
2019-01-15T22:20:03.123Z,1015.31
2019-01-15T22:25:02.515Z,1015.27
2019-01-15T22:30:02.997Z,1015.26
2019-01-15T22:35:02.386Z,1015.14
2019-01-15T22:40:02.825Z,1015.16
2019-01-15T22:45:03.158Z,1015.1
2019-01-15T22:50:02.485Z,1015.05
2019-01-15T22:55:02.821Z,1014.97
2019-01-15T23:00:03.168Z,1014.91
2019-01-15T23:05:01.775Z,1014.86
2019-01-15T23:10:03.169Z,1014.82
2019-01-15T23:15:02.557Z,1014.81
2019-01-15T23:20:03.011Z,1014.8
2019-01-15T23:25:02.435Z,1014.65
2019-01-15T23:30:02.851Z,1014.61
2019-01-15T23:35:03.203Z,1014.66
2019-01-15T23:40:02.708Z,1014.53
2019-01-15T23:45:03.056Z,1014.5
2019-01-15T23:50:02.470Z,1014.53
2019-01-15T23:55:02.805Z,1014.34
